Decoded Metar for KFME (FORT MEADE in MD, USA) (IATA:N/A) | Meteo·Mobile Aviation Weather
aviador You're here:

KFME Decoded Metar

FORT MEADE in MD, USA
Report Time2019-09-21 09:21:00
UTC Time2019-09-21 09:39:22
Flight Rules vfr VFR
WindCalm
Visibility9999 m
Phenomena:N/A
Clouds:N/A
Expected CloudBase > 400 ft AGL from Temp-Dew spread
CeilingNone
Temp09°C (ISA -6)
Dew Point08°C (94% RH)
AAT8.6°C
QNH1025 hPa
Density Alt-794 ft
Elevation151 ft
Report Wrong Elevation
Raw Report
KFME 210921Z AUTO 00000KT 10SM CLR 09/08 A3026 RMK AO1=

Extra information for KFME:More info

Metar Taf Metar & Taf Last 4 Metars F.Rules Stats Wind Profile Meteogram Temp Stats Airport Information Weather charts Add Link Nearby VenuesMetar ALERT Operation Metar Decoded Social comments

AIRNAV info for KFME